createdAt,value
2019-04-12T00:00:47.645Z,62.82
2019-04-12T00:01:47.629Z,62.53
2019-04-12T00:02:47.621Z,62.05
2019-04-12T00:03:47.618Z,61.96
2019-04-12T00:04:47.610Z,61.68
2019-04-12T00:05:47.601Z,61.68
2019-04-12T00:06:47.595Z,61.20
2019-04-12T00:07:47.588Z,61.01
2019-04-12T00:08:47.583Z,61.11
2019-04-12T00:09:47.575Z,61.11
2019-04-12T00:10:47.567Z,60.92
2019-04-12T00:11:47.560Z,61.39
2019-04-12T00:12:47.554Z,61.30
2019-04-12T00:13:47.546Z,62.05
2019-04-12T00:14:47.541Z,61.58
2019-04-12T00:15:47.532Z,61.39
2019-04-12T00:16:47.529Z,61.87
2019-04-12T00:17:47.518Z,61.20
2019-04-12T00:18:47.511Z,61.30
2019-04-12T00:19:47.504Z,60.92
2019-04-12T00:20:47.501Z,61.30
2019-04-12T00:21:47.491Z,61.77
2019-04-12T00:22:47.483Z,61.11
2019-04-12T00:23:47.479Z,61.39
2019-04-12T00:24:47.803Z,60.73
2019-04-12T00:25:48.091Z,61.11
2019-04-12T00:26:49.170Z,61.01
2019-04-12T00:27:48.988Z,60.92
2019-04-12T00:28:49.899Z,61.30
2019-04-12T00:29:50.637Z,61.30
2019-04-12T00:30:51.161Z,60.92
2019-04-12T00:31:47.427Z,61.11
2019-04-12T00:32:49.137Z,60.73
2019-04-12T00:33:47.408Z,60.53
2019-04-12T00:34:47.403Z,60.73
2019-04-12T00:35:49.010Z,60.73
2019-04-12T00:36:47.751Z,60.92
2019-04-12T00:37:47.745Z,60.92
2019-04-12T00:38:47.375Z,61.20
2019-04-12T00:39:51.001Z,60.73
2019-04-12T00:40:47.364Z,60.73
2019-04-12T00:41:47.379Z,60.92
2019-04-12T00:42:47.348Z,61.30
2019-04-12T00:43:47.345Z,61.30
2019-04-12T00:44:47.334Z,61.77
2019-04-12T00:45:47.328Z,61.77
2019-04-12T00:46:47.320Z,61.87
2019-04-12T00:47:47.516Z,61.20
2019-04-12T00:48:47.309Z,61.39
2019-04-12T00:49:47.301Z,61.20
2019-04-12T00:50:47.293Z,61.39
2019-04-12T00:51:47.289Z,61.39
2019-04-12T00:52:47.845Z,60.73
2019-04-12T00:53:47.275Z,60.92
2019-04-12T00:54:50.398Z,61.01
2019-04-12T00:55:48.362Z,62.05
2019-04-12T00:56:47.612Z,62.05
2019-04-12T00:57:47.246Z,62.05
2019-04-12T00:58:47.241Z,61.87
2019-04-12T01:00:48.299Z,61.96
2019-04-12T01:01:47.388Z,61.87
2019-04-12T01:02:47.212Z,62.34
2019-04-12T01:04:47.312Z,62.15
2019-04-12T01:05:48.733Z,61.77
2019-04-12T01:06:48.461Z,61.87
2019-04-12T01:07:48.054Z,61.68
2019-04-12T01:08:49.001Z,61.68
2019-04-12T01:09:47.164Z,61.77
2019-04-12T01:10:47.158Z,61.87
2019-04-12T01:11:47.152Z,61.96
2019-04-12T01:12:47.206Z,62.34
2019-04-12T01:13:47.141Z,63.10
2019-04-12T01:14:47.497Z,62.82
2019-04-12T01:15:47.328Z,63.20
2019-04-12T01:16:47.322Z,63.29
2019-04-12T01:17:47.169Z,63.20
2019-04-12T01:18:47.103Z,63.20
2019-04-12T01:19:47.098Z,63.67
2019-04-12T01:20:47.092Z,63.39
2019-04-12T01:21:47.082Z,62.72
2019-04-12T01:22:47.458Z,63.29
2019-04-12T01:23:47.436Z,62.53
2019-04-12T01:24:57.092Z,63.39
2019-04-12T01:25:47.057Z,63.48
2019-04-12T01:26:47.170Z,63.39
2019-04-12T01:27:47.822Z,63.20
2019-04-12T01:28:48.325Z,63.20
2019-04-12T01:29:48.046Z,63.76
2019-04-12T01:30:47.023Z,63.20
2019-04-12T01:31:47.024Z,63.10
2019-04-12T01:32:47.010Z,63.67
2019-04-12T01:33:47.203Z,63.20
2019-04-12T01:34:46.997Z,63.95
2019-04-12T01:35:47.190Z,63.95
2019-04-12T01:38:46.969Z,64.43
2019-04-12T01:39:46.968Z,64.71
2019-04-12T01:40:46.977Z,64.81
2019-04-12T01:41:46.949Z,65.00
2019-04-12T01:43:47.161Z,66.04
2019-04-12T01:44:46.929Z,66.52
2019-04-12T01:45:46.923Z,66.61
2019-04-12T01:46:47.278Z,67.18
2019-04-12T01:48:47.263Z,67.46
2019-04-12T01:49:46.897Z,67.18
2019-04-12T01:50:46.887Z,66.89
2019-04-12T01:51:46.942Z,67.18
2019-04-12T01:52:46.876Z,66.99
2019-04-12T01:53:46.867Z,67.08
2019-04-12T01:54:46.862Z,67.27
2019-04-12T01:55:46.855Z,67.08
2019-04-12T01:56:46.867Z,67.56
2019-04-12T01:57:46.844Z,67.08
2019-04-12T01:58:46.894Z,66.71
2019-04-12T01:59:46.827Z,66.33
2019-04-12T02:00:46.822Z,66.61
2019-04-12T02:01:46.811Z,66.33
2019-04-12T02:02:46.807Z,66.42
2019-04-12T02:03:46.806Z,66.42
2019-04-12T02:04:46.792Z,66.42
2019-04-12T02:05:46.784Z,66.99
2019-04-12T02:06:46.781Z,67.37
2019-04-12T02:07:46.770Z,66.23
2019-04-12T02:08:46.765Z,65.66
2019-04-12T02:09:46.757Z,66.33
2019-04-12T02:10:46.754Z,65.95
2019-04-12T02:11:46.746Z,66.23
2019-04-12T02:12:46.738Z,66.33
2019-04-12T02:13:46.732Z,67.37
2019-04-12T02:14:47.129Z,67.18
2019-04-12T02:15:46.719Z,67.18
2019-04-12T02:16:46.712Z,67.37
2019-04-12T02:17:46.702Z,66.80
2019-04-12T02:18:46.695Z,66.89
2019-04-12T02:19:46.890Z,65.37
2019-04-12T02:20:46.884Z,64.52
2019-04-12T02:21:46.673Z,63.95
2019-04-12T02:22:46.700Z,63.39
2019-04-12T02:23:46.663Z,62.82
2019-04-12T02:24:46.717Z,62.24
2019-04-12T02:25:46.647Z,63.39
2019-04-12T02:26:46.641Z,63.10
2019-04-12T02:27:46.636Z,62.82
2019-04-12T02:28:46.627Z,62.53
2019-04-12T02:29:46.621Z,63.48
2019-04-12T02:30:46.817Z,64.24
2019-04-12T02:31:46.612Z,64.71
2019-04-12T02:33:46.602Z,65.47
2019-04-12T02:34:46.586Z,66.33
2019-04-12T02:35:46.579Z,65.75
2019-04-12T02:36:46.573Z,66.33
2019-04-12T02:37:46.566Z,66.33
2019-04-12T02:38:46.578Z,66.99
2019-04-12T02:39:46.553Z,67.18
2019-04-12T02:40:46.567Z,67.37
2019-04-12T02:41:46.900Z,68.41
2019-04-12T02:42:46.536Z,68.23
2019-04-12T02:43:46.537Z,69.93
2019-04-12T02:44:46.564Z,70.09
2019-04-12T02:45:46.510Z,69.90
2019-04-12T02:46:46.842Z,70.47
2019-04-12T02:47:46.700Z,70.40
2019-04-12T02:50:46.478Z,71.60
2019-04-12T02:52:46.464Z,71.60
2019-04-12T02:53:46.822Z,71.98
2019-04-12T02:54:46.481Z,72.17
2019-04-12T02:55:46.444Z,72.45
2019-04-12T02:56:46.465Z,72.27
2019-04-12T02:57:46.490Z,73.31
2019-04-12T02:58:46.423Z,73.31
2019-04-12T02:59:46.629Z,74.07
2019-04-12T03:00:46.406Z,73.97
2019-04-12T03:02:46.392Z,74.45
2019-04-12T03:03:46.385Z,74.64
2019-04-12T03:04:46.402Z,74.92
2019-04-12T03:05:46.434Z,75.49
2019-04-12T03:06:46.377Z,75.78
2019-04-12T03:07:46.721Z,75.87
2019-04-12T03:08:46.352Z,75.78
2019-04-12T03:09:46.704Z,76.63
2019-04-12T03:10:46.338Z,77.48
2019-04-12T03:12:46.350Z,77.67
2019-04-12T03:13:46.314Z,77.96
2019-04-12T03:15:46.301Z,78.62
2019-04-12T03:16:46.701Z,78.53
2019-04-12T03:17:46.287Z,79.00
2019-04-12T03:18:46.282Z,79.19
2019-04-12T03:19:46.334Z,79.47
2019-04-12T03:20:46.478Z,79.76
2019-04-12T03:22:46.253Z,79.28
2019-04-12T03:23:46.611Z,79.76
2019-04-12T03:24:46.247Z,79.76
2019-04-12T03:25:53.836Z,79.95
2019-04-12T03:28:24.674Z,80.80
2019-04-12T03:29:24.734Z,80.24
2019-04-12T03:30:24.663Z,80.52
2019-04-12T03:31:24.642Z,80.62
2019-04-12T03:33:13.144Z,80.80
2019-04-12T03:34:13.297Z,80.80
2019-04-12T03:35:12.926Z,81.09
2019-04-12T03:36:12.921Z,81.56
2019-04-12T03:37:13.272Z,81.27
2019-04-12T03:38:12.902Z,81.27
2019-04-12T03:39:12.897Z,81.37
2019-04-12T03:40:12.890Z,81.85
2019-04-12T03:41:12.880Z,81.85
2019-04-12T03:42:13.075Z,82.79
2019-04-12T03:43:12.865Z,81.85
2019-04-12T03:44:12.859Z,81.85
2019-04-12T03:45:12.853Z,81.66
2019-04-12T03:46:12.844Z,82.04
2019-04-12T03:47:12.838Z,81.37
2019-04-12T03:48:12.840Z,81.85
2019-04-12T03:49:12.823Z,81.66
2019-04-12T03:50:12.816Z,81.94
2019-04-12T03:51:12.810Z,82.04
2019-04-12T03:52:12.808Z,82.42
2019-04-12T03:53:12.795Z,82.42
2019-04-12T03:54:12.788Z,82.60
2019-04-12T03:55:12.782Z,82.51
2019-04-12T03:56:12.774Z,82.32
2019-04-12T03:57:12.768Z,82.98
2019-04-12T03:58:12.758Z,82.98
2019-04-12T03:59:12.759Z,82.79
2019-04-12T04:00:12.748Z,83.08
2019-04-12T04:01:12.738Z,83.46
2019-04-12T04:02:12.731Z,83.27
2019-04-12T04:03:12.756Z,83.55
2019-04-12T04:04:12.921Z,83.17
2019-04-12T04:05:12.713Z,83.65
2019-04-12T04:06:12.708Z,83.55
2019-04-12T04:07:12.700Z,83.36
2019-04-12T04:08:12.690Z,83.27
2019-04-12T04:09:12.685Z,83.17
2019-04-12T04:10:12.676Z,84.41
2019-04-12T04:11:12.668Z,83.08
2019-04-12T04:12:12.660Z,83.27
2019-04-12T04:13:12.653Z,83.27
2019-04-12T04:14:12.646Z,83.94
2019-04-12T04:15:12.637Z,84.12
2019-04-12T04:16:12.632Z,83.55
2019-04-12T04:17:12.829Z,83.84
2019-04-12T04:18:12.980Z,84.03
2019-04-12T04:19:12.610Z,84.22
2019-04-12T04:20:12.604Z,83.65
2019-04-12T04:21:12.596Z,84.22
2019-04-12T04:22:12.589Z,83.84
2019-04-12T04:23:12.584Z,83.46
2019-04-12T04:24:12.578Z,83.55
2019-04-12T04:25:12.568Z,83.27
2019-04-12T04:26:23.034Z,83.94
2019-04-12T04:27:12.552Z,84.31
2019-04-12T04:28:12.547Z,84.03
2019-04-12T04:29:12.537Z,83.84
2019-04-12T04:30:12.532Z,84.22
2019-04-12T04:31:12.534Z,83.74
2019-04-12T04:32:12.520Z,83.84
2019-04-12T04:33:12.508Z,83.46
2019-04-12T04:34:12.503Z,83.55
2019-04-12T04:35:12.496Z,84.12
2019-04-12T04:36:12.489Z,83.94
2019-04-12T04:37:12.488Z,83.46
2019-04-12T04:38:12.838Z,84.03
2019-04-12T04:39:12.468Z,83.36
2019-04-12T04:40:12.460Z,83.08
2019-04-12T04:41:12.453Z,83.36
2019-04-12T04:42:12.445Z,84.03
2019-04-12T04:43:12.438Z,83.94
2019-04-12T04:44:12.435Z,84.03
2019-04-12T04:45:12.423Z,83.84
2019-04-12T04:46:12.416Z,83.84
2019-04-12T04:47:12.613Z,83.17
2019-04-12T04:48:12.401Z,83.55
2019-04-12T04:49:12.395Z,83.36
2019-04-12T04:50:55.707Z,83.55
2019-04-12T04:51:55.699Z,83.36
2019-04-12T04:52:55.690Z,82.89
2019-04-12T04:53:55.683Z,83.27
2019-04-12T04:54:55.677Z,83.36
2019-04-12T04:55:55.669Z,83.08
2019-04-12T04:56:55.664Z,83.36
2019-04-12T04:57:55.655Z,83.46
2019-04-12T04:58:55.648Z,83.17
2019-04-12T04:59:55.642Z,83.27
2019-04-12T05:00:55.633Z,82.70
2019-04-12T05:01:55.650Z,82.60
2019-04-12T05:02:55.620Z,82.70
2019-04-12T05:03:55.613Z,82.51
2019-04-12T05:04:55.604Z,82.60
2019-04-12T05:05:55.652Z,82.51
2019-04-12T05:06:55.590Z,82.89
2019-04-12T05:07:55.583Z,82.42
2019-04-12T05:08:55.574Z,82.60
2019-04-12T05:09:55.769Z,82.60
2019-04-12T05:10:55.560Z,81.85
2019-04-12T05:11:55.556Z,82.13
2019-04-12T05:12:55.545Z,82.04
2019-04-12T05:13:55.538Z,81.09
2019-04-12T05:14:55.555Z,81.09
2019-04-12T05:15:55.524Z,81.56
2019-04-12T05:16:55.517Z,82.32
2019-04-12T05:17:55.510Z,81.47
2019-04-12T05:18:55.505Z,81.27
2019-04-12T05:19:55.498Z,81.27
2019-04-12T05:20:55.690Z,81.27
2019-04-12T05:21:55.842Z,81.37
2019-04-12T05:22:55.677Z,81.27
2019-04-12T05:23:55.832Z,81.56
2019-04-12T05:24:55.822Z,81.66
2019-04-12T05:25:55.819Z,81.56
2019-04-12T05:26:55.649Z,81.47
2019-04-12T05:27:55.437Z,80.99
2019-04-12T05:28:55.795Z,81.27
2019-04-12T05:29:55.423Z,81.09
2019-04-12T05:30:55.414Z,80.71
2019-04-12T05:31:55.407Z,80.52
2019-04-12T05:32:56.007Z,81.18
2019-04-12T05:33:55.393Z,80.52
2019-04-12T05:34:55.386Z,80.71
2019-04-12T05:35:55.380Z,81.37
2019-04-12T05:36:55.371Z,81.27
2019-04-12T05:37:55.364Z,80.43
2019-04-12T05:38:55.358Z,81.37
2019-04-12T05:39:55.352Z,81.18
2019-04-12T05:40:55.348Z,81.09
2019-04-12T05:41:55.337Z,80.43
2019-04-12T05:42:55.332Z,81.09
2019-04-12T05:43:55.320Z,80.71
2019-04-12T05:44:55.316Z,80.52
2019-04-12T05:45:55.305Z,80.43
2019-04-12T05:46:55.311Z,79.85
2019-04-12T05:47:55.292Z,79.66
2019-04-12T05:48:55.285Z,80.52
2019-04-12T05:49:55.299Z,80.04
2019-04-12T05:50:55.270Z,80.43
2019-04-12T05:51:55.266Z,80.80
2019-04-12T05:52:55.279Z,80.24
2019-04-12T05:53:56.663Z,79.85
2019-04-12T05:54:55.244Z,80.43
2019-04-12T05:56:57.339Z,80.24
2019-04-12T05:57:55.219Z,80.04
2019-04-12T05:58:55.211Z,80.33
2019-04-12T05:59:55.206Z,80.33
2019-04-12T06:00:55.558Z,80.14
2019-04-12T06:01:55.191Z,80.24
2019-04-12T06:02:56.790Z,80.14
2019-04-12T06:03:58.156Z,80.33
2019-04-12T06:04:58.898Z,80.24
2019-04-12T06:05:55.163Z,80.43
2019-04-12T06:06:55.520Z,80.62
2019-04-12T06:07:55.149Z,80.80
2019-04-12T06:08:55.139Z,80.62
2019-04-12T06:09:55.133Z,79.76
2019-04-12T06:10:55.125Z,79.47
2019-04-12T06:11:55.480Z,79.76
2019-04-12T06:12:55.111Z,80.62
2019-04-12T06:13:55.103Z,80.80
2019-04-12T06:14:55.097Z,80.71
2019-04-12T06:17:01.154Z,81.37
2019-04-12T06:19:13.457Z,81.88
2019-04-12T06:20:13.651Z,80.46
2019-04-12T06:21:13.460Z,81.56
2019-04-12T06:22:13.434Z,81.37
2019-04-12T06:23:13.426Z,80.62
2019-04-12T06:24:13.623Z,80.62
2019-04-12T06:25:13.414Z,81.27
2019-04-12T06:26:13.406Z,80.52
2019-04-12T06:27:13.397Z,80.71
2019-04-12T06:28:13.754Z,79.57
2019-04-12T06:29:13.413Z,80.62
2019-04-12T06:30:13.376Z,81.18
2019-04-12T06:31:13.393Z,80.71
2019-04-12T06:32:13.368Z,80.52
2019-04-12T06:33:13.354Z,81.27
2019-04-12T06:34:13.550Z,80.90
2019-04-12T06:35:13.342Z,80.33
2019-04-12T06:36:13.336Z,81.18
2019-04-12T06:37:13.385Z,82.27
2019-04-12T06:38:13.883Z,82.13
2019-04-12T06:39:13.313Z,81.37
2019-04-12T06:40:13.307Z,81.18
2019-04-12T06:41:13.385Z,79.71
2019-04-12T06:43:13.286Z,81.94
2019-04-12T06:44:13.639Z,81.37
2019-04-12T06:46:13.263Z,80.52
2019-04-12T06:48:13.252Z,79.80
2019-04-12T06:49:13.264Z,81.70
2019-04-12T06:50:13.597Z,82.27
2019-04-12T06:51:13.228Z,82.36
2019-04-12T06:52:13.221Z,81.79
2019-04-12T06:53:13.213Z,81.79
2019-04-12T06:54:13.210Z,81.70
2019-04-12T06:55:13.201Z,80.84
2019-04-12T06:56:13.205Z,82.36
2019-04-12T06:57:22.675Z,82.17
2019-04-12T06:58:13.182Z,82.36
2019-04-12T06:59:14.143Z,81.79
2019-04-12T07:00:13.167Z,81.56
2019-04-12T07:02:13.152Z,81.60
2019-04-12T07:03:13.913Z,81.51
2019-04-12T07:04:13.340Z,81.98
2019-04-12T07:05:13.131Z,82.27
2019-04-12T07:06:13.124Z,82.17
2019-04-12T07:07:13.123Z,82.46
2019-04-12T07:08:13.555Z,83.40
2019-04-12T07:09:13.105Z,82.65
2019-04-12T07:10:13.463Z,81.79
2019-04-12T07:11:13.090Z,81.70
2019-04-12T07:12:13.492Z,82.36
2019-04-12T07:13:13.820Z,81.51
2019-04-12T07:14:13.071Z,83.31
2019-04-12T07:15:13.065Z,83.12
2019-04-12T07:16:13.419Z,83.22
2019-04-12T07:17:13.074Z,83.78
2019-04-12T07:19:13.266Z,82.08
2019-04-12T07:22:13.220Z,83.22
2019-04-12T07:24:13.065Z,84.01
2019-04-12T07:25:13.021Z,85.06
2019-04-12T07:26:13.353Z,84.30
2019-04-12T07:27:13.246Z,84.97
2019-04-12T07:28:13.318Z,84.64
2019-04-12T07:29:14.142Z,84.30
2019-04-12T07:30:13.330Z,83.83
2019-04-12T07:31:13.322Z,84.78
2019-04-12T07:33:13.513Z,84.78
2019-04-12T07:34:13.142Z,84.97
2019-04-12T07:35:12.934Z,84.97
2019-04-12T07:36:13.188Z,84.01
2019-04-12T07:37:12.943Z,83.73
2019-04-12T07:38:12.915Z,84.11
2019-04-12T07:39:13.516Z,84.87
2019-04-12T07:42:12.890Z,84.97
2019-04-12T07:44:13.646Z,84.59
2019-04-12T07:45:13.238Z,85.25
2019-04-12T07:46:13.701Z,84.21
2019-04-12T07:47:12.859Z,84.68
2019-04-12T07:48:15.909Z,84.49
2019-04-12T07:50:13.207Z,84.82
2019-04-12T07:53:13.084Z,86.05
2019-04-12T07:54:13.785Z,86.15
2019-04-12T07:55:13.036Z,85.58
2019-04-12T07:58:13.356Z,85.06
2019-04-12T07:59:12.850Z,85.16
2019-04-12T08:01:13.341Z,85.11
2019-04-12T08:04:12.962Z,85.49
2019-04-12T08:08:12.795Z,84.82
2019-04-12T08:09:13.093Z,85.20
2019-04-12T08:11:13.690Z,85.01
2019-04-12T08:17:13.859Z,85.30
2019-04-12T08:19:12.736Z,85.01
2019-04-12T08:21:16.643Z,84.53
2019-04-12T08:22:13.424Z,85.30
2019-04-12T08:25:31.030Z,84.82
2019-04-12T08:26:31.027Z,85.01
2019-04-12T08:27:31.026Z,84.25
2019-04-12T08:32:50.914Z,80.83
2019-04-12T08:33:50.910Z,80.07
2019-04-12T08:34:50.902Z,80.16
2019-04-12T08:35:50.897Z,79.79
2019-04-12T08:36:50.890Z,80.26
2019-04-12T08:37:50.886Z,79.69
2019-04-12T08:38:50.881Z,79.97
2019-04-12T08:39:50.875Z,79.50
2019-04-12T08:40:50.870Z,79.31
2019-04-12T08:41:50.867Z,78.74
2019-04-12T08:42:50.861Z,78.27
2019-04-12T08:43:53.961Z,77.60
2019-04-12T08:44:50.850Z,78.08
2019-04-12T08:45:50.846Z,79.22
2019-04-12T08:46:50.867Z,80.16
2019-04-12T08:47:50.835Z,80.03
2019-04-12T08:48:50.830Z,81.55
2019-04-12T08:49:50.865Z,80.93
2019-04-12T08:51:50.813Z,80.93
2019-04-12T08:52:50.821Z,82.21
2019-04-12T08:53:50.837Z,82.92
2019-04-12T08:54:50.807Z,83.20
2019-04-12T08:55:51.008Z,83.91
2019-04-12T08:56:50.798Z,80.42
2019-04-12T08:57:50.843Z,76.12
2019-04-12T08:59:50.798Z,67.89
2019-04-12T09:00:51.193Z,69.85
2019-04-12T09:01:51.157Z,71.15
2019-04-12T09:04:51.028Z,76.59
2019-04-12T09:05:51.006Z,78.40
2019-04-12T09:06:51.220Z,79.44
2019-04-12T09:07:51.469Z,79.92
2019-04-12T09:09:51.558Z,79.54
2019-04-12T09:11:51.256Z,79.44
2019-04-12T09:17:51.567Z,78.59
2019-04-12T09:20:51.074Z,76.54
2019-04-12T09:21:50.762Z,76.21
2019-04-12T09:22:50.732Z,76.50
2019-04-12T09:23:50.679Z,76.93
2019-04-12T09:24:50.717Z,78.97
2019-04-12T09:25:50.676Z,79.63
2019-04-12T09:26:50.666Z,79.54
2019-04-12T09:27:50.686Z,79.73
2019-04-12T09:28:50.680Z,80.02
2019-04-12T09:29:50.744Z,79.16
2019-04-12T09:30:50.680Z,79.44
2019-04-12T09:31:50.847Z,79.01
2019-04-12T09:32:50.743Z,76.29
2019-04-12T09:33:50.996Z,73.57
2019-04-12T09:34:50.630Z,70.47
2019-04-12T09:35:51.296Z,66.97
2019-04-12T09:36:50.831Z,64.12
2019-04-12T09:38:50.616Z,60.30
2019-04-12T09:39:51.041Z,56.99
2019-04-12T09:41:50.605Z,52.20
2019-04-12T09:42:50.606Z,50.26
2019-04-12T09:43:50.603Z,50.33
2019-04-12T09:46:10.063Z,49.66
2019-04-12T09:47:10.872Z,50.12
2019-04-12T09:48:10.064Z,51.33
2019-04-12T09:49:10.063Z,51.86
2019-04-12T09:50:10.066Z,51.19
2019-04-12T09:51:10.065Z,50.76
2019-04-12T09:52:10.066Z,51.85
2019-04-12T09:53:10.071Z,53.61
2019-04-12T09:54:10.073Z,55.20
2019-04-12T09:55:10.074Z,57.74
2019-04-12T09:56:10.073Z,59.90
2019-04-12T09:57:10.078Z,62.27
2019-04-12T09:58:10.080Z,64.46
2019-04-12T09:59:10.080Z,64.75
2019-04-12T10:00:10.080Z,64.87
2019-04-12T10:01:12.044Z,64.59
2019-04-12T10:02:13.954Z,64.59
2019-04-12T10:03:10.083Z,64.40
2019-04-12T10:04:10.082Z,63.92
2019-04-12T10:05:10.084Z,63.83
2019-04-12T10:06:10.085Z,63.73
2019-04-12T10:07:10.083Z,64.08
2019-04-12T10:08:10.092Z,64.75
2019-04-12T10:09:12.771Z,64.65
2019-04-12T10:10:10.086Z,65.28
2019-04-12T10:11:10.080Z,65.19
2019-04-12T10:12:10.078Z,66.61
2019-04-12T10:13:10.077Z,67.94
2019-04-12T10:14:10.077Z,68.99
2019-04-12T10:15:10.075Z,69.75
2019-04-12T10:16:11.807Z,69.60
2019-04-12T10:17:10.071Z,70.64
2019-04-12T10:18:10.070Z,71.02
2019-04-12T10:19:10.067Z,70.26
2019-04-12T10:20:10.064Z,69.56
2019-04-12T10:21:12.266Z,69.94
2019-04-12T10:22:10.060Z,71.02
2019-04-12T10:23:10.067Z,70.54
2019-04-12T10:24:10.052Z,70.26
2019-04-12T10:25:10.050Z,70.01
2019-04-12T10:26:10.048Z,69.35
2019-04-12T10:27:10.046Z,67.35
2019-04-12T10:28:10.045Z,65.54
2019-04-12T10:29:10.039Z,65.54
2019-04-12T10:30:10.036Z,66.65
2019-04-12T10:31:10.034Z,67.13
2019-04-12T10:32:10.029Z,67.41
2019-04-12T10:33:10.029Z,67.98
2019-04-12T10:34:10.024Z,69.21
2019-04-12T10:35:10.033Z,70.07
2019-04-12T10:36:10.016Z,69.88
2019-04-12T10:37:10.014Z,69.88
2019-04-12T10:38:10.010Z,70.17
2019-04-12T10:39:10.007Z,70.61
2019-04-12T10:40:11.145Z,71.75
2019-04-12T10:41:10.000Z,73.74
2019-04-12T10:42:10.042Z,75.07
2019-04-12T10:43:09.995Z,74.66
2019-04-12T10:44:09.991Z,75.79
2019-04-12T10:45:09.985Z,77.18
2019-04-12T10:46:09.983Z,78.03
2019-04-12T10:47:09.980Z,79.65
2019-04-12T10:48:53.296Z,79.60
2019-04-12T10:49:53.292Z,79.88
2019-04-12T10:50:53.285Z,78.83
2019-04-12T10:51:53.281Z,78.83
2019-04-12T10:52:53.280Z,77.83
2019-04-12T10:53:53.274Z,77.36
2019-04-12T10:54:53.268Z,75.55
2019-04-12T10:55:53.264Z,74.03
2019-04-12T10:56:53.260Z,73.21
2019-04-12T10:57:53.257Z,73.78
2019-04-12T10:59:02.410Z,73.36
2019-04-12T10:59:53.245Z,73.59
2019-04-12T11:00:53.242Z,74.07
2019-04-12T11:01:53.238Z,73.59
2019-04-12T11:02:53.239Z,73.11
2019-04-12T11:03:53.227Z,72.35
2019-04-12T11:04:53.224Z,71.97
2019-04-12T11:05:53.220Z,72.16
2019-04-12T11:06:53.214Z,72.16
2019-04-12T11:07:53.210Z,73.11
2019-04-12T11:08:53.209Z,73.34
2019-04-12T11:09:53.202Z,72.49
2019-04-12T11:10:53.199Z,70.97
2019-04-12T11:11:53.193Z,68.87
2019-04-12T11:12:53.193Z,67.44
2019-04-12T11:13:53.185Z,67.35
2019-04-12T11:14:54.910Z,66.17
2019-04-12T11:15:53.176Z,66.84
2019-04-12T11:16:53.180Z,66.65
2019-04-12T11:17:53.171Z,65.41
2019-04-12T11:18:53.164Z,64.08
2019-04-12T11:19:53.162Z,63.79
2019-04-12T11:20:53.156Z,63.99
2019-04-12T11:21:53.152Z,64.37
2019-04-12T11:22:53.149Z,64.18
2019-04-12T11:23:53.143Z,64.08
2019-04-12T11:24:53.140Z,63.48
2019-04-12T11:25:53.135Z,64.56
2019-04-12T11:26:53.133Z,65.13
2019-04-12T11:27:53.126Z,65.41
2019-04-12T11:28:53.124Z,64.37
2019-04-12T11:29:53.121Z,64.37
2019-04-12T11:30:53.115Z,64.08
2019-04-12T11:31:53.110Z,64.84
2019-04-12T11:32:53.106Z,64.37
2019-04-12T11:33:53.101Z,64.65
2019-04-12T11:34:53.098Z,64.72
2019-04-12T11:35:53.092Z,65.57
2019-04-12T11:36:53.088Z,66.52
2019-04-12T11:37:53.087Z,67.38
2019-04-12T11:38:53.082Z,67.98
2019-04-12T11:39:53.076Z,68.55
2019-04-12T11:40:53.073Z,69.21
2019-04-12T11:41:53.069Z,69.56
2019-04-12T11:42:53.064Z,72.38
2019-04-12T11:43:53.059Z,74.85
2019-04-12T11:44:53.054Z,77.31
2019-04-12T11:45:53.052Z,78.51
2019-04-12T11:46:53.047Z,79.84
2019-04-12T11:47:53.043Z,80.88
2019-04-12T11:48:53.038Z,82.03
2019-04-12T11:49:53.035Z,82.74
2019-04-12T11:50:53.030Z,82.36
2019-04-12T11:51:53.024Z,83.97
2019-04-12T11:52:53.021Z,83.31
2019-04-12T11:53:53.014Z,84.17
2019-04-12T11:54:53.010Z,82.93
2019-04-12T11:55:53.004Z,82.59
2019-04-12T11:56:52.999Z,83.92
2019-04-12T11:57:52.993Z,83.64
2019-04-12T11:58:52.988Z,84.68
2019-04-12T11:59:52.983Z,83.83
2019-04-12T12:00:52.979Z,83.36
2019-04-12T12:01:52.972Z,83.16
2019-04-12T12:02:52.968Z,82.16
2019-04-12T12:03:52.963Z,83.11
2019-04-12T12:04:52.957Z,83.49
2019-04-12T12:05:52.953Z,83.72
2019-04-12T12:06:52.948Z,82.35
2019-04-12T12:07:52.940Z,80.74
2019-04-12T12:08:52.939Z,80.21
2019-04-12T12:09:52.933Z,80.07
2019-04-12T12:10:52.925Z,79.31
2019-04-12T12:11:52.921Z,79.60
2019-04-12T12:12:52.917Z,79.73
2019-04-12T12:13:52.911Z,78.69
2019-04-12T12:14:52.904Z,77.64
2019-04-12T12:15:52.899Z,76.59
2019-04-12T12:16:52.896Z,76.31
2019-04-12T12:17:52.891Z,75.45
2019-04-12T12:18:52.885Z,74.75
2019-04-12T12:19:52.880Z,75.17
2019-04-12T12:20:52.875Z,73.42
2019-04-12T12:21:52.871Z,73.42
2019-04-12T12:22:52.862Z,73.84
2019-04-12T12:23:52.859Z,75.17
2019-04-12T12:24:52.855Z,77.30
2019-04-12T12:25:52.851Z,73.49
2019-04-12T12:26:52.843Z,72.64
2019-04-12T12:27:52.839Z,73.21
2019-04-12T12:28:52.835Z,73.97
2019-04-12T12:29:52.830Z,72.16
2019-04-12T12:30:52.824Z,71.88
2019-04-12T12:31:52.820Z,72.35
2019-04-12T12:32:52.813Z,74.01
2019-04-12T12:33:52.809Z,74.01
2019-04-12T12:34:52.803Z,74.29
2019-04-12T12:35:52.800Z,74.20
2019-04-12T12:36:52.794Z,72.05
2019-04-12T12:37:52.789Z,71.95
2019-04-12T12:38:52.783Z,69.85
2019-04-12T12:39:53.119Z,67.92
2019-04-12T12:40:52.774Z,67.82
2019-04-12T12:41:52.772Z,67.41
2019-04-12T12:42:52.765Z,67.22
2019-04-12T12:43:52.759Z,66.74
2019-04-12T12:44:52.757Z,65.64
2019-04-12T12:45:52.751Z,64.08
2019-04-12T12:46:52.747Z,63.29
2019-04-12T12:47:52.742Z,64.62
2019-04-12T12:48:52.735Z,66.84
2019-04-12T12:49:52.733Z,65.09
2019-04-12T12:50:52.729Z,66.36
2019-04-12T12:51:52.721Z,67.13
2019-04-12T12:52:52.723Z,65.38
2019-04-12T12:53:52.714Z,67.50
2019-04-12T12:54:52.707Z,67.73
2019-04-12T12:55:52.702Z,67.82
2019-04-12T12:56:52.698Z,65.54
2019-04-12T12:57:52.693Z,66.87
2019-04-12T12:58:52.690Z,65.92
2019-04-12T12:59:55.031Z,65.73
2019-04-12T13:00:52.681Z,66.84
2019-04-12T13:01:52.673Z,67.16
2019-04-12T13:02:52.667Z,67.25
2019-04-12T13:03:52.665Z,66.84
2019-04-12T13:04:52.662Z,66.42
2019-04-12T13:05:52.656Z,68.33
2019-04-12T13:06:52.649Z,68.90
2019-04-12T13:07:52.643Z,69.85
2019-04-12T13:08:52.639Z,71.50
2019-04-12T13:09:52.637Z,71.53
2019-04-12T13:10:52.630Z,69.21
2019-04-12T13:11:52.624Z,69.66
2019-04-12T13:12:52.622Z,69.56
2019-04-12T13:13:52.617Z,71.27
2019-04-12T13:14:52.609Z,70.99
2019-04-12T13:15:52.604Z,71.02
2019-04-12T13:16:52.602Z,72.11
2019-04-12T13:17:52.597Z,70.26
2019-04-12T13:18:52.591Z,69.31
2019-04-12T13:19:52.585Z,69.27
2019-04-12T13:20:52.581Z,70.83
2019-04-12T13:21:52.575Z,71.59
2019-04-12T13:22:52.574Z,71.72
2019-04-12T13:23:52.569Z,70.49
2019-04-12T13:24:52.561Z,68.74
2019-04-12T13:25:52.556Z,68.46
2019-04-12T13:26:52.549Z,69.41
2019-04-12T13:27:52.545Z,71.91
2019-04-12T13:28:52.540Z,69.41
2019-04-12T13:29:52.538Z,70.01
2019-04-12T13:30:52.530Z,70.77
2019-04-12T13:31:52.525Z,68.59
2019-04-12T13:32:52.521Z,67.50
2019-04-12T13:33:52.516Z,68.74
2019-04-12T13:34:52.510Z,70.36
2019-04-12T13:35:52.506Z,70.93
2019-04-12T13:36:52.502Z,71.12
2019-04-12T13:37:52.497Z,71.02
2019-04-12T13:38:52.501Z,70.04
2019-04-12T13:39:52.489Z,69.94
2019-04-12T13:40:52.480Z,70.61
2019-04-12T13:41:52.477Z,71.41
2019-04-12T13:42:52.469Z,71.59
2019-04-12T13:43:52.465Z,70.10
2019-04-12T13:44:52.462Z,68.36
2019-04-12T13:45:52.455Z,67.09
2019-04-12T13:46:52.449Z,69.98
2019-04-12T13:47:52.446Z,69.79
2019-04-12T13:48:52.439Z,68.52
2019-04-12T13:49:52.438Z,70.32
2019-04-12T13:50:52.430Z,69.94
2019-04-12T13:51:52.425Z,70.61
2019-04-12T13:52:52.420Z,70.99
2019-04-12T13:53:52.415Z,71.04
2019-04-12T13:54:52.407Z,72.32
2019-04-12T13:55:52.406Z,73.84
2019-04-12T13:56:52.400Z,71.52
2019-04-12T13:57:52.395Z,72.28
2019-04-12T13:58:52.387Z,73.46
2019-04-12T13:59:52.382Z,73.93
2019-04-12T14:00:52.377Z,73.11
2019-04-12T14:01:52.374Z,71.97
2019-04-12T14:02:52.368Z,72.35
2019-04-12T14:03:52.361Z,71.91
2019-04-12T14:04:52.356Z,69.69
2019-04-12T14:05:52.350Z,70.42
2019-04-12T14:06:52.344Z,71.59
2019-04-12T14:07:52.339Z,70.36